B603L PANC-RJCC
Flight info
| Callsign | B603L |
|---|---|
| Flight time | N/A |
| Altitude | 34000 |
| Route | IFHIX DCT NODLE R220 NEONN G349 MARCC G583 BESAT/K0846F340 G583 BISIV/N0470F340 G583 MVE V8 BEEBA V1 KURIS |
| Aircraft | CL60/M-SBDE1E2E3FGHIJ1J4J5J7M3RWXYZ/LB1V1D1 |
Departure
| Time | 2026-05-04 15:55 |
|---|---|
| Airport | Ted Stevens Anchorage International Airport (PANC) |
Arrival
| Time | N/A |
|---|---|
| Airport | New Chitose Airport (RJCC) |
| Time | Latitude | Longitude | Altitude | Speed | Heading |
|---|---|---|---|---|---|
| 2026-05-04 15:07 | 61.16528 | -149.98642 | 162 ft | 0 kts | 40° |
| 2026-05-04 15:50 | 61.16533 | -149.98619 | 161 ft | 4 kts | 82° |
| 2026-05-04 15:51 | 61.16539 | -149.98531 | 161 ft | 7 kts | 83° |
| 2026-05-04 15:51 | 61.16570 | -149.98425 | 161 ft | 10 kts | 36° |
| 2026-05-04 15:51 | 61.16638 | -149.98351 | 161 ft | 12 kts | 10° |
| 2026-05-04 15:51 | 61.16727 | -149.98392 | 161 ft | 14 kts | 341° |
| 2026-05-04 15:52 | 61.16825 | -149.98469 | 161 ft | 16 kts | 338° |
| 2026-05-04 15:52 | 61.16935 | -149.98553 | 161 ft | 17 kts | 339° |
| 2026-05-04 15:52 | 61.17055 | -149.98639 | 161 ft | 18 kts | 342° |
| 2026-05-04 15:52 | 61.17122 | -149.98767 | 161 ft | 13 kts | 273° |
| 2026-05-04 15:53 | 61.17124 | -149.98969 | 161 ft | 14 kts | 270° |
| 2026-05-04 15:53 | 61.17125 | -149.99190 | 161 ft | 16 kts | 270° |
| 2026-05-04 15:53 | 61.17126 | -149.99431 | 161 ft | 17 kts | 270° |
| 2026-05-04 15:53 | 61.17127 | -149.99687 | 161 ft | 18 kts | 269° |
| 2026-05-04 15:54 | 61.17162 | -149.99875 | 162 ft | 13 kts | 334° |
| 2026-05-04 15:54 | 61.17265 | -149.99939 | 162 ft | 25 kts | 345° |
| 2026-05-04 15:54 | 61.17732 | -150.00200 | 162 ft | 109 kts | 344° |
| 2026-05-04 15:54 | 61.18657 | -150.00723 | 221 ft | 162 kts | 344° |
| 2026-05-04 15:55 | 61.19794 | -150.01398 | 759 ft | 177 kts | 343° |
| 2026-05-04 15:55 | 61.20871 | -150.02653 | 1422 ft | 186 kts | 320° |
| 2026-05-04 15:55 | 61.21942 | -150.04442 | 1820 ft | 206 kts | 321° |
| 2026-05-04 15:55 | 61.23013 | -150.06392 | 2166 ft | 202 kts | 316° |
| 2026-05-04 15:56 | 61.24012 | -150.08464 | 2494 ft | 201 kts | 310° |
| 2026-05-04 15:56 | 61.24592 | -150.11087 | 2798 ft | 204 kts | 279° |
| 2026-05-04 15:56 | 61.24741 | -150.14026 | 3129 ft | 207 kts | 275° |
| 2026-05-04 15:56 | 61.24840 | -150.17021 | 3474 ft | 209 kts | 274° |
| 2026-05-04 15:57 | 61.24984 | -150.20021 | 3823 ft | 210 kts | 283° |
| 2026-05-04 15:57 | 61.25180 | -150.23091 | 4187 ft | 221 kts | 273° |
| 2026-05-04 15:57 | 61.25240 | -150.26430 | 4708 ft | 246 kts | 272° |
| 2026-05-04 15:57 | 61.25301 | -150.30078 | 5416 ft | 262 kts | 272° |
| 2026-05-04 15:58 | 61.25372 | -150.33920 | 6209 ft | 273 kts | 272° |
| 2026-05-04 15:58 | 61.25457 | -150.37871 | 7041 ft | 278 kts | 272° |
| 2026-05-04 15:58 | 61.25544 | -150.41875 | 7884 ft | 282 kts | 272° |
| 2026-05-04 15:58 | 61.25632 | -150.45924 | 8729 ft | 286 kts | 272° |
| 2026-05-04 15:59 | 61.25721 | -150.50041 | 9591 ft | 289 kts | 272° |
| 2026-05-04 15:59 | 61.25812 | -150.54248 | 10456 ft | 292 kts | 272° |
| 2026-05-04 15:59 | 61.25905 | -150.58466 | 11280 ft | 295 kts | 271° |
| 2026-05-04 15:59 | 61.25994 | -150.62755 | 11891 ft | 304 kts | 271° |
| 2026-05-04 16:00 | 61.26086 | -150.67143 | 12587 ft | 308 kts | 270° |
| 2026-05-04 16:00 | 61.26182 | -150.71559 | 13477 ft | 307 kts | 269° |
| 2026-05-04 16:00 | 61.26275 | -150.75954 | 14382 ft | 306 kts | 268° |
| 2026-05-04 16:00 | 61.26366 | -150.80380 | 15260 ft | 305 kts | 267° |
| 2026-05-04 16:01 | 61.26455 | -150.84775 | 15991 ft | 306 kts | 268° |
| 2026-05-04 16:01 | 61.26540 | -150.89209 | 16535 ft | 312 kts | 269° |
| 2026-05-04 16:01 | 61.26626 | -150.93733 | 17036 ft | 319 kts | 270° |
| 2026-05-04 16:01 | 61.26717 | -150.98383 | 17581 ft | 325 kts | 272° |
| 2026-05-04 16:02 | 61.26812 | -151.03111 | 18202 ft | 329 kts | 271° |
| 2026-05-04 16:02 | 61.26904 | -151.07812 | 18973 ft | 329 kts | 269° |
| 2026-05-04 16:02 | 61.27078 | -151.17255 | 20638 ft | 328 kts | 265° |
| 2026-05-04 16:03 | 61.27162 | -151.21962 | 21504 ft | 325 kts | 265° |
| 2026-05-04 16:03 | 61.27245 | -151.26610 | 22107 ft | 326 kts | 264° |
| 2026-05-04 16:03 | 61.27323 | -151.31366 | 22558 ft | 332 kts | 264° |
| 2026-05-04 16:03 | 61.27401 | -151.36206 | 23065 ft | 335 kts | 265° |
| 2026-05-04 16:04 | 61.27480 | -151.41014 | 23584 ft | 337 kts | 265° |
| 2026-05-04 16:04 | 61.27640 | -151.50748 | 24680 ft | 338 kts | 264° |
| 2026-05-04 16:04 | 61.27714 | -151.55666 | 25106 ft | 342 kts | 264° |
| 2026-05-04 16:05 | 61.27787 | -151.60646 | 25504 ft | 346 kts | 264° |
| 2026-05-04 16:05 | 61.27863 | -151.65590 | 26009 ft | 347 kts | 263° |
| 2026-05-04 16:05 | 61.28009 | -151.75711 | 26779 ft | 355 kts | 262° |
| 2026-05-04 16:06 | 61.28077 | -151.80800 | 27285 ft | 354 kts | 262° |
| 2026-05-04 16:06 | 61.28258 | -151.94525 | 28384 ft | 358 kts | 262° |
| 2026-05-04 16:07 | 61.28339 | -152.01329 | 28985 ft | 358 kts | 261° |
| 2026-05-04 16:07 | 61.28423 | -152.17052 | 29933 ft | 366 kts | 261° |
| 2026-05-04 16:08 | 61.28460 | -152.22331 | 30370 ft | 364 kts | 260° |
| 2026-05-04 16:08 | 61.28515 | -152.38268 | 31192 ft | 372 kts | 260° |
| 2026-05-04 16:09 | 61.28547 | -152.49091 | 31592 ft | 379 kts | 259° |
| 2026-05-04 16:09 | 61.28572 | -152.60030 | 32272 ft | 377 kts | 259° |
| 2026-05-04 16:10 | 61.28581 | -152.70982 | 32533 ft | 385 kts | 258° |
| 2026-05-04 16:11 | 61.28595 | -152.87503 | 33290 ft | 386 kts | 258° |
| 2026-05-04 16:11 | 61.28586 | -152.93118 | 33454 ft | 388 kts | 257° |
| 2026-05-04 16:12 | 61.28569 | -153.09947 | 33871 ft | 395 kts | 258° |
| 2026-05-04 16:12 | 61.28515 | -153.27470 | 33874 ft | 412 kts | 258° |
| 2026-05-04 16:13 | 61.28412 | -153.51794 | 33841 ft | 430 kts | 259° |
| 2026-05-04 16:14 | 61.28278 | -153.76825 | 33921 ft | 437 kts | 258° |
| 2026-05-04 16:16 | 61.28040 | -154.08421 | 33784 ft | 436 kts | 258° |
| 2026-05-04 16:17 | 61.27719 | -154.39824 | 33836 ft | 436 kts | 258° |
| 2026-05-04 16:18 | 61.27408 | -154.65036 | 33954 ft | 438 kts | 257° |
| 2026-05-04 16:19 | 61.26961 | -154.96640 | 33922 ft | 436 kts | 257° |
| 2026-05-04 16:20 | 61.26437 | -155.28055 | 33907 ft | 438 kts | 258° |
| 2026-05-04 16:22 | 61.25841 | -155.59450 | 33899 ft | 438 kts | 257° |
| 2026-05-04 16:23 | 61.25024 | -155.97404 | 33901 ft | 440 kts | 256° |
| 2026-05-04 16:25 | 61.25133 | -156.35684 | 33906 ft | 445 kts | 260° |
| 2026-05-04 16:26 | 61.25270 | -156.80458 | 33956 ft | 444 kts | 259° |
| 2026-05-04 16:28 | 61.25251 | -157.12411 | 33945 ft | 444 kts | 259° |
| 2026-05-04 16:29 | 61.25109 | -157.57050 | 33943 ft | 446 kts | 259° |
| 2026-05-04 16:31 | 61.24919 | -157.89098 | 33909 ft | 445 kts | 259° |
| 2026-05-04 16:32 | 61.24597 | -158.27460 | 33916 ft | 446 kts | 259° |
| 2026-05-04 16:33 | 61.24319 | -158.53056 | 33901 ft | 445 kts | 260° |
| 2026-05-04 16:34 | 61.24089 | -158.72249 | 33940 ft | 445 kts | 259° |
| 2026-05-04 16:35 | 61.23524 | -159.10532 | 33940 ft | 445 kts | 259° |
| 2026-05-04 16:36 | 61.23205 | -159.29700 | 33990 ft | 446 kts | 259° |
| 2026-05-04 16:37 | 61.22856 | -159.48938 | 33942 ft | 446 kts | 260° |
| 2026-05-04 16:38 | 61.22348 | -159.74535 | 33945 ft | 445 kts | 259° |
| 2026-05-04 16:39 | 61.21650 | -160.06438 | 33977 ft | 447 kts | 260° |
| 2026-05-04 16:40 | 61.21034 | -160.32112 | 33997 ft | 447 kts | 260° |
| 2026-05-04 16:41 | 61.20200 | -160.64033 | 34028 ft | 445 kts | 260° |
| 2026-05-04 16:43 | 61.19289 | -160.95920 | 34017 ft | 444 kts | 260° |
| 2026-05-04 16:43 | 61.18708 | -161.15013 | 34022 ft | 445 kts | 260° |
| 2026-05-04 16:45 | 61.17468 | -161.53116 | 34059 ft | 443 kts | 260° |
| 2026-05-04 16:46 | 61.16352 | -161.84885 | 34036 ft | 443 kts | 259° |
| 2026-05-04 16:47 | 61.15408 | -162.10234 | 34039 ft | 443 kts | 260° |
| 2026-05-04 16:48 | 61.14413 | -162.35564 | 34029 ft | 445 kts | 260° |
| 2026-05-04 16:49 | 61.13375 | -162.60915 | 34052 ft | 445 kts | 260° |
| 2026-05-04 16:50 | 61.12285 | -162.86322 | 34075 ft | 443 kts | 259° |
| 2026-05-04 16:51 | 61.11061 | -163.05034 | 34096 ft | 436 kts | 250° |
| 2026-05-04 16:52 | 61.07662 | -163.29118 | 34067 ft | 440 kts | 250° |
| 2026-05-04 16:53 | 61.05098 | -163.47163 | 34100 ft | 440 kts | 250° |
| 2026-05-04 16:54 | 61.01650 | -163.71291 | 34084 ft | 440 kts | 250° |